sensor_id;sensor_type;location;lat;lon;timestamp;pressure;altitude;pressure_sealevel;temperature;humidity
24306;BME280;12423;48.768;8.850;2023-11-19T00:00:12;96914.50;;;8.24;100.00
24306;BME280;12423;48.768;8.850;2023-11-19T00:02:41;96901.34;;;8.23;100.00
24306;BME280;12423;48.768;8.850;2023-11-19T00:05:10;96907.53;;;8.23;100.00
24306;BME280;12423;48.768;8.850;2023-11-19T00:07:39;96900.38;;;8.24;100.00
24306;BME280;12423;48.768;8.850;2023-11-19T00:10:08;96888.16;;;8.33;100.00
24306;BME280;12423;48.768;8.850;2023-11-19T00:12:38;96895.06;;;8.35;100.00
24306;BME280;12423;48.768;8.850;2023-11-19T00:15:08;96879.78;;;8.37;100.00
24306;BME280;12423;48.768;8.850;2023-11-19T00:17:38;96879.56;;;8.40;100.00
24306;BME280;12423;48.768;8.850;2023-11-19T00:20:08;96885.28;;;8.47;100.00
24306;BME280;12423;48.768;8.850;2023-11-19T00:22:36;96889.63;;;8.48;100.00
24306;BME280;12423;48.768;8.850;2023-11-19T00:25:15;96870.84;;;8.49;100.00
24306;BME280;12423;48.768;8.850;2023-11-19T00:27:43;96867.94;;;8.53;100.00
24306;BME280;12423;48.768;8.850;2023-11-19T00:30:14;96863.72;;;8.50;100.00
24306;BME280;12423;48.768;8.850;2023-11-19T00:32:42;96868.53;;;8.56;100.00
24306;BME280;12423;48.768;8.850;2023-11-19T00:35:09;96862.25;;;8.57;100.00
24306;BME280;12423;48.768;8.850;2023-11-19T00:37:37;96864.06;;;8.57;100.00
24306;BME280;12423;48.768;8.850;2023-11-19T00:40:07;96859.59;;;8.57;100.00
24306;BME280;12423;48.768;8.850;2023-11-19T00:42:37;96859.59;;;8.57;100.00
24306;BME280;12423;48.768;8.850;2023-11-19T00:45:05;96851.59;;;8.57;100.00
24306;BME280;12423;48.768;8.850;2023-11-19T00:47:37;96845.31;;;8.58;100.00
24306;BME280;12423;48.768;8.850;2023-11-19T00:50:06;96857.41;;;8.62;100.00
24306;BME280;12423;48.768;8.850;2023-11-19T00:52:36;96855.31;;;8.66;100.00
24306;BME280;12423;48.768;8.850;2023-11-19T00:55:05;96849.28;;;8.64;100.00
24306;BME280;12423;48.768;8.850;2023-11-19T00:57:33;96848.56;;;8.62;100.00
24306;BME280;12423;48.768;8.850;2023-11-19T01:00:02;96856.44;;;8.63;100.00
24306;BME280;12423;48.768;8.850;2023-11-19T01:02:35;96844.22;;;8.61;100.00
24306;BME280;12423;48.768;8.850;2023-11-19T01:05:08;96851.25;;;8.62;100.00
24306;BME280;12423;48.768;8.850;2023-11-19T01:07:36;96845.78;;;8.63;100.00
24306;BME280;12423;48.768;8.850;2023-11-19T01:10:05;96847.63;;;8.63;100.00
24306;BME280;12423;48.768;8.850;2023-11-19T01:12:33;96848.34;;;8.65;100.00
24306;BME280;12423;48.768;8.850;2023-11-19T01:15:05;96847.09;;;8.69;100.00
24306;BME280;12423;48.768;8.850;2023-11-19T01:17:33;96842.63;;;8.70;100.00
24306;BME280;12423;48.768;8.850;2023-11-19T01:20:02;96846.97;;;8.71;100.00
24306;BME280;12423;48.768;8.850;2023-11-19T01:22:34;96837.19;;;8.71;100.00
24306;BME280;12423;48.768;8.850;2023-11-19T01:25:01;96838.72;;;8.74;100.00
24306;BME280;12423;48.768;8.850;2023-11-19T01:27:29;96835.13;;;8.75;100.00
24306;BME280;12423;48.768;8.850;2023-11-19T01:29:57;96832.31;;;8.76;100.00
24306;BME280;12423;48.768;8.850;2023-11-19T01:32:25;96831.22;;;8.79;100.00
24306;BME280;12423;48.768;8.850;2023-11-19T01:34:53;96827.34;;;8.83;100.00
24306;BME280;12423;48.768;8.850;2023-11-19T01:37:21;96829.25;;;8.81;100.00
24306;BME280;12423;48.768;8.850;2023-11-19T01:39:50;96836.28;;;8.82;100.00
24306;BME280;12423;48.768;8.850;2023-11-19T01:42:21;96825.75;;;8.80;100.00
24306;BME280;12423;48.768;8.850;2023-11-19T01:44:57;96831.91;;;8.81;100.00
24306;BME280;12423;48.768;8.850;2023-11-19T01:47:25;96825.63;;;8.82;100.00
24306;BME280;12423;48.768;8.850;2023-11-19T01:49:54;96835.44;;;8.81;100.00
24306;BME280;12423;48.768;8.850;2023-11-19T01:52:23;96822.97;;;8.82;100.00
24306;BME280;12423;48.768;8.850;2023-11-19T01:54:52;96833.13;;;8.88;100.00
24306;BME280;12423;48.768;8.850;2023-11-19T01:57:22;96811.09;;;8.86;100.00
24306;BME280;12423;48.768;8.850;2023-11-19T01:59:51;96820.78;;;8.87;100.00
24306;BME280;12423;48.768;8.850;2023-11-19T02:02:20;96824.03;;;8.91;100.00
24306;BME280;12423;48.768;8.850;2023-11-19T02:04:49;96826.56;;;8.92;100.00
24306;BME280;12423;48.768;8.850;2023-11-19T02:07:18;96816.78;;;8.93;100.00
24306;BME280;12423;48.768;8.850;2023-11-19T02:09:47;96819.31;;;8.94;100.00
24306;BME280;12423;48.768;8.850;2023-11-19T02:12:16;96810.06;;;8.98;100.00
24306;BME280;12423;48.768;8.850;2023-11-19T02:14:44;96809.81;;;9.01;100.00
24306;BME280;12423;48.768;8.850;2023-11-19T02:17:25;96818.78;;;9.00;100.00
24306;BME280;12423;48.768;8.850;2023-11-19T02:19:53;96816.84;;;9.02;100.00
24306;BME280;12423;48.768;8.850;2023-11-19T02:22:21;96810.16;;;9.08;100.00
24306;BME280;12423;48.768;8.850;2023-11-19T02:24:54;96801.19;;;9.09;100.00
24306;BME280;12423;48.768;8.850;2023-11-19T02:27:30;96810.03;;;9.10;100.00
24306;BME280;12423;48.768;8.850;2023-11-19T02:29:59;96818.03;;;9.10;100.00
24306;BME280;12423;48.768;8.850;2023-11-19T02:32:27;96799.13;;;9.13;100.00
24306;BME280;12423;48.768;8.850;2023-11-19T02:34:57;96800.78;;;9.14;100.00
24306;BME280;12423;48.768;8.850;2023-11-19T02:37:34;96795.31;;;9.15;100.00
24306;BME280;12423;48.768;8.850;2023-11-19T02:40:02;96800.66;;;9.15;100.00
24306;BME280;12423;48.768;8.850;2023-11-19T02:42:31;96808.66;;;9.15;100.00
24306;BME280;12423;48.768;8.850;2023-11-19T02:45:01;96815.56;;;9.18;100.00
24306;BME280;12423;48.768;8.850;2023-11-19T02:47:32;96805.47;;;9.21;100.00
24306;BME280;12423;48.768;8.850;2023-11-19T02:50:01;96806.50;;;9.30;100.00
24306;BME280;12423;48.768;8.850;2023-11-19T02:52:29;96798.78;;;9.27;100.00
24306;BME280;12423;48.768;8.850;2023-11-19T02:55:01;96803.84;;;9.30;100.00
24306;BME280;12423;48.768;8.850;2023-11-19T02:57:30;96813.53;;;9.31;100.00
24306;BME280;12423;48.768;8.850;2023-11-19T02:59:58;96814.84;;;9.37;100.00
24306;BME280;12423;48.768;8.850;2023-11-19T03:02:27;96810.25;;;9.39;100.00
24306;BME280;12423;48.768;8.850;2023-11-19T03:05:00;96815.56;;;9.39;100.00
24306;BME280;12423;48.768;8.850;2023-11-19T03:07:28;96821.75;;;9.39;100.00
24306;BME280;12423;48.768;8.850;2023-11-19T03:09:55;96817.69;;;9.45;100.00
24306;BME280;12423;48.768;8.850;2023-11-19T03:12:23;96812.50;;;9.44;100.00
24306;BME280;12423;48.768;8.850;2023-11-19T03:14:52;96814.06;;;9.46;100.00
24306;BME280;12423;48.768;8.850;2023-11-19T03:17:21;96806.19;;;9.45;100.00
24306;BME280;12423;48.768;8.850;2023-11-19T03:19:52;96814.91;;;9.47;100.00
24306;BME280;12423;48.768;8.850;2023-11-19T03:22:19;96803.97;;;9.50;100.00
24306;BME280;12423;48.768;8.850;2023-11-19T03:24:47;96812.69;;;9.52;100.00
24306;BME280;12423;48.768;8.850;2023-11-19T03:27:18;96808.47;;;9.49;100.00
24306;BME280;12423;48.768;8.850;2023-11-19T03:29:45;96810.44;;;9.47;100.00
24306;BME280;12423;48.768;8.850;2023-11-19T03:32:13;96811.72;;;9.53;100.00
24306;BME280;12423;48.768;8.850;2023-11-19T03:34:41;96809.19;;;9.51;100.00
24306;BME280;12423;48.768;8.850;2023-11-19T03:37:10;96797.81;;;9.49;100.00
24306;BME280;12423;48.768;8.850;2023-11-19T03:39:39;96800.34;;;9.51;100.00
24306;BME280;12423;48.768;8.850;2023-11-19T03:42:06;96793.31;;;9.50;100.00
24306;BME280;12423;48.768;8.850;2023-11-19T03:44:34;96802.00;;;9.52;100.00
24306;BME280;12423;48.768;8.850;2023-11-19T03:47:02;96794.75;;;9.54;100.00
24306;BME280;12423;48.768;8.850;2023-11-19T03:49:30;96795.72;;;9.53;100.00
24306;BME280;12423;48.768;8.850;2023-11-19T03:51:58;96780.69;;;9.52;100.00
24306;BME280;12423;48.768;8.850;2023-11-19T03:54:28;96787.59;;;9.54;100.00
24306;BME280;12423;48.768;8.850;2023-11-19T03:56:55;96789.16;;;9.57;100.00
24306;BME280;12423;48.768;8.850;2023-11-19T03:59:23;96796.88;;;9.60;100.00
24306;BME280;12423;48.768;8.850;2023-11-19T04:01:51;96794.81;;;9.64;100.00
24306;BME280;12423;48.768;8.850;2023-11-19T04:04:20;96796.47;;;9.65;100.00
24306;BME280;12423;48.768;8.850;2023-11-19T04:06:48;96790.31;;;9.64;100.00
24306;BME280;12423;48.768;8.850;2023-11-19T04:09:15;96786.69;;;9.65;100.00
24306;BME280;12423;48.768;8.850;2023-11-19T04:11:45;96798.50;;;9.72;100.00
24306;BME280;12423;48.768;8.850;2023-11-19T04:14:13;96799.06;;;9.76;100.00
24306;BME280;12423;48.768;8.850;2023-11-19T04:16:41;96804.72;;;9.83;100.00
24306;BME280;12423;48.768;8.850;2023-11-19T04:19:09;96805.28;;;9.86;100.00
24306;BME280;12423;48.768;8.850;2023-11-19T04:21:39;96805.84;;;9.90;100.00
24306;BME280;12423;48.768;8.850;2023-11-19T04:24:08;96805.91;;;10.00;100.00
24306;BME280;12423;48.768;8.850;2023-11-19T04:26:40;96799.19;;;10.05;100.00
24306;BME280;12423;48.768;8.850;2023-11-19T04:29:11;96797.22;;;10.07;100.00
24306;BME280;12423;48.768;8.850;2023-11-19T04:31:40;96807.06;;;10.07;100.00
24306;BME280;12423;48.768;8.850;2023-11-19T04:34:08;96800.75;;;10.08;100.00
24306;BME280;12423;48.768;8.850;2023-11-19T04:36:35;96813.25;;;10.07;100.00
24306;BME280;12423;48.768;8.850;2023-11-19T04:39:04;96815.22;;;10.05;100.00
24306;BME280;12423;48.768;8.850;2023-11-19T04:41:35;96808.03;;;10.06;100.00
24306;BME280;12423;48.768;8.850;2023-11-19T04:44:03;96803.53;;;10.06;100.00
24306;BME280;12423;48.768;8.850;2023-11-19T04:46:32;96794.69;;;10.06;100.00
24306;BME280;12423;48.768;8.850;2023-11-19T04:49:00;96807.06;;;10.07;100.00
24306;BME280;12423;48.768;8.850;2023-11-19T04:51:27;96811.53;;;10.06;100.00
24306;BME280;12423;48.768;8.850;2023-11-19T04:53:55;96810.97;;;10.03;100.00
24306;BME280;12423;48.768;8.850;2023-11-19T04:56:23;96815.47;;;10.02;100.00
24306;BME280;12423;48.768;8.850;2023-11-19T04:58:50;96812.00;;;10.11;100.00
24306;BME280;12423;48.768;8.850;2023-11-19T05:01:18;96810.75;;;10.15;100.00
24306;BME280;12423;48.768;8.850;2023-11-19T05:03:48;96801.22;;;10.13;100.00
24306;BME280;12423;48.768;8.850;2023-11-19T05:06:17;96809.78;;;10.17;100.00
24306;BME280;12423;48.768;8.850;2023-11-19T05:08:45;96808.56;;;10.30;100.00
24306;BME280;12423;48.768;8.850;2023-11-19T05:11:13;96805.25;;;10.38;100.00
24306;BME280;12423;48.768;8.850;2023-11-19T05:13:44;96800.47;;;10.42;100.00
24306;BME280;12423;48.768;8.850;2023-11-19T05:16:12;96799.91;;;10.38;100.00
24306;BME280;12423;48.768;8.850;2023-11-19T05:18:41;96801.00;;;10.36;100.00
24306;BME280;12423;48.768;8.850;2023-11-19T05:21:11;96811.16;;;10.42;100.00
24306;BME280;12423;48.768;8.850;2023-11-19T05:23:39;96812.72;;;10.44;100.00
24306;BME280;12423;48.768;8.850;2023-11-19T05:26:08;96813.53;;;10.45;100.00
24306;BME280;12423;48.768;8.850;2023-11-19T05:28:37;96807.38;;;10.44;100.00
24306;BME280;12423;48.768;8.850;2023-11-19T05:31:05;96802.88;;;10.45;100.00
24306;BME280;12423;48.768;8.850;2023-11-19T05:33:33;96803.44;;;10.48;100.00
24306;BME280;12423;48.768;8.850;2023-11-19T05:36:01;96810.19;;;10.53;100.00
24306;BME280;12423;48.768;8.850;2023-11-19T05:38:31;96817.06;;;10.55;100.00
24306;BME280;12423;48.768;8.850;2023-11-19T05:40:58;96805.69;;;10.53;100.00
24306;BME280;12423;48.768;8.850;2023-11-19T05:43:26;96805.56;;;10.55;100.00
24306;BME280;12423;48.768;8.850;2023-11-19T05:45:54;96803.72;;;10.55;100.00
24306;BME280;12423;48.768;8.850;2023-11-19T05:48:22;96799.63;;;10.61;100.00
24306;BME280;12423;48.768;8.850;2023-11-19T05:50:49;96776.91;;;10.66;100.00
24306;BME280;12423;48.768;8.850;2023-11-19T05:53:17;96780.81;;;10.72;100.00
24306;BME280;12423;48.768;8.850;2023-11-19T05:55:47;96803.47;;;10.68;100.00
24306;BME280;12423;48.768;8.850;2023-11-19T05:58:23;96793.34;;;10.81;100.00
24306;BME280;12423;48.768;8.850;2023-11-19T06:00:52;96788.97;;;10.80;100.00
24306;BME280;12423;48.768;8.850;2023-11-19T06:03:20;96792.66;;;10.69;100.00
24306;BME280;12423;48.768;8.850;2023-11-19T06:05:48;96793.75;;;10.67;100.00
24306;BME280;12423;48.768;8.850;2023-11-19T06:08:16;96809.78;;;10.67;100.00
24306;BME280;12423;48.768;8.850;2023-11-19T06:10:44;96808.94;;;10.66;100.00
24306;BME280;12423;48.768;8.850;2023-11-19T06:13:14;96809.78;;;10.67;100.00
24306;BME280;12423;48.768;8.850;2023-11-19T06:15:42;96806.41;;;10.65;100.00
24306;BME280;12423;48.768;8.850;2023-11-19T06:18:10;96800.50;;;10.61;100.00
24306;BME280;12423;48.768;8.850;2023-11-19T06:20:40;96805.59;;;10.64;100.00
24306;BME280;12423;48.768;8.850;2023-11-19T06:23:09;96806.97;;;10.68;100.00
24306;BME280;12423;48.768;8.850;2023-11-19T06:25:37;96813.63;;;10.74;100.00
24306;BME280;12423;48.768;8.850;2023-11-19T06:28:05;96810.94;;;10.74;100.00
24306;BME280;12423;48.768;8.850;2023-11-19T06:30:34;96811.50;;;10.78;100.00
24306;BME280;12423;48.768;8.850;2023-11-19T06:33:02;96807.13;;;10.77;100.00
24306;BME280;12423;48.768;8.850;2023-11-19T06:35:31;96803.75;;;10.75;100.00
24306;BME280;12423;48.768;8.850;2023-11-19T06:38:03;96816.28;;;10.74;100.00
24306;BME280;12423;48.768;8.850;2023-11-19T06:40:31;96816.56;;;10.71;100.00
24306;BME280;12423;48.768;8.850;2023-11-19T06:42:59;96805.00;;;10.70;100.00
24306;BME280;12423;48.768;8.850;2023-11-19T06:45:27;96808.81;;;10.68;100.00
24306;BME280;12423;48.768;8.850;2023-11-19T06:47:56;96816.56;;;10.71;100.00
24306;BME280;12423;48.768;8.850;2023-11-19T06:50:25;96808.25;;;10.74;100.00
24306;BME280;12423;48.768;8.850;2023-11-19T06:52:52;96819.09;;;10.73;100.00
24306;BME280;12423;48.768;8.850;2023-11-19T06:55:20;96810.34;;;10.70;100.00
24306;BME280;12423;48.768;8.850;2023-11-19T06:57:48;96805.00;;;10.70;100.00
24306;BME280;12423;48.768;8.850;2023-11-19T07:00:16;96811.47;;;10.68;100.00
24306;BME280;12423;48.768;8.850;2023-11-19T07:02:44;96799.09;;;10.67;100.00
24306;BME280;12423;48.768;8.850;2023-11-19T07:05:13;96795.47;;;10.68;100.00
24306;BME280;12423;48.768;8.850;2023-11-19T07:07:41;96802.78;;;10.66;100.00
24306;BME280;12423;48.768;8.850;2023-11-19T07:10:09;96803.34;;;10.69;100.00
24306;BME280;12423;48.768;8.850;2023-11-19T07:12:36;96806.28;;;10.76;100.00
24306;BME280;12423;48.768;8.850;2023-11-19T07:15:05;96807.81;;;10.79;100.00
24306;BME280;12423;48.768;8.850;2023-11-19T07:17:33;96818.97;;;10.84;100.00
24306;BME280;12423;48.768;8.850;2023-11-19T07:20:03;96822.34;;;10.86;100.00
24306;BME280;12423;48.768;8.850;2023-11-19T07:22:33;96818.81;;;10.85;100.00
24306;BME280;12423;48.768;8.850;2023-11-19T07:25:01;96825.00;;;10.86;100.00
24306;BME280;12423;48.768;8.850;2023-11-19T07:27:29;96830.34;;;10.86;100.00
24306;BME280;12423;48.768;8.850;2023-11-19T07:29:56;96823.88;;;10.88;100.00
24306;BME280;12423;48.768;8.850;2023-11-19T07:32:24;96835.13;;;10.92;100.00
24306;BME280;12423;48.768;8.850;2023-11-19T07:34:52;96836.94;;;10.92;100.00
24306;BME280;12423;48.768;8.850;2023-11-19T07:37:20;96828.66;;;10.95;100.00
24306;BME280;12423;48.768;8.850;2023-11-19T07:39:52;96836.41;;;10.98;100.00
24306;BME280;12423;48.768;8.850;2023-11-19T07:42:23;96834.28;;;10.92;100.00
24306;BME280;12423;48.768;8.850;2023-11-19T07:44:50;96853.13;;;11.00;100.00
24306;BME280;12423;48.768;8.850;2023-11-19T07:47:18;96839.38;;;11.04;100.00
24306;BME280;12423;48.768;8.850;2023-11-19T07:49:52;96845.28;;;11.08;100.00
24306;BME280;12423;48.768;8.850;2023-11-19T07:52:20;96844.16;;;11.11;100.00
24306;BME280;12423;48.768;8.850;2023-11-19T07:54:48;96850.75;;;11.16;100.00
24306;BME280;12423;48.768;8.850;2023-11-19T07:57:17;96854.84;;;11.20;100.00
24306;BME280;12423;48.768;8.850;2023-11-19T07:59:45;96847.81;;;11.29;100.00
24306;BME280;12423;48.768;8.850;2023-11-19T08:02:12;96857.81;;;11.37;100.00
24306;BME280;12423;48.768;8.850;2023-11-19T08:04:41;96857.66;;;11.38;100.00
24306;BME280;12423;48.768;8.850;2023-11-19T08:07:13;96856.81;;;11.38;100.00
24306;BME280;12423;48.768;8.850;2023-11-19T08:09:40;96849.47;;;11.40;100.00
24306;BME280;12423;48.768;8.850;2023-11-19T08:12:08;96853.84;;;11.41;100.00
24306;BME280;12423;48.768;8.850;2023-11-19T08:14:37;96856.53;;;11.41;100.00
24306;BME280;12423;48.768;8.850;2023-11-19T08:17:07;96845.53;;;11.44;100.00
24306;BME280;12423;48.768;8.850;2023-11-19T08:19:34;96850.63;;;11.47;100.00
24306;BME280;12423;48.768;8.850;2023-11-19T08:22:03;96853.00;;;11.50;100.00
24306;BME280;12423;48.768;8.850;2023-11-19T08:24:30;96848.06;;;11.55;100.00
24306;BME280;12423;48.768;8.850;2023-11-19T08:26:58;96860.03;;;11.61;100.00
24306;BME280;12423;48.768;8.850;2023-11-19T08:29:29;96878.75;;;11.71;100.00
24306;BME280;12423;48.768;8.850;2023-11-19T08:32:00;96879.28;;;11.74;100.00
24306;BME280;12423;48.768;8.850;2023-11-19T08:34:29;96859.72;;;11.74;100.00
24306;BME280;12423;48.768;8.850;2023-11-19T08:36:57;96871.97;;;11.76;100.00
24306;BME280;12423;48.768;8.850;2023-11-19T08:39:24;96868.16;;;11.79;100.00
24306;BME280;12423;48.768;8.850;2023-11-19T08:41:52;96868.16;;;11.79;100.00
24306;BME280;12423;48.768;8.850;2023-11-19T08:44:19;96874.06;;;11.83;100.00
24306;BME280;12423;48.768;8.850;2023-11-19T08:46:48;96869.56;;;11.83;100.00
24306;BME280;12423;48.768;8.850;2023-11-19T08:49:17;96856.88;;;11.85;100.00
24306;BME280;12423;48.768;8.850;2023-11-19T08:51:45;96871.25;;;11.84;100.00
24306;BME280;12423;48.768;8.850;2023-11-19T08:54:13;96869.13;;;11.88;100.00
24306;BME280;12423;48.768;8.850;2023-11-19T08:56:40;96875.63;;;11.85;100.00
24306;BME280;12423;48.768;8.850;2023-11-19T08:59:08;96884.06;;;11.90;100.00
24306;BME280;12423;48.768;8.850;2023-11-19T09:01:36;96875.50;;;11.96;100.00
24306;BME280;12423;48.768;8.850;2023-11-19T09:04:04;96879.84;;;11.97;100.00
24306;BME280;12423;48.768;8.850;2023-11-19T09:06:35;96874.19;;;12.01;100.00
24306;BME280;12423;48.768;8.850;2023-11-19T09:09:03;96865.88;;;12.04;100.00
24306;BME280;12423;48.768;8.850;2023-11-19T09:11:32;96866.03;;;12.02;100.00
24306;BME280;12423;48.768;8.850;2023-11-19T09:13:59;96856.47;;;12.00;100.00
24306;BME280;12423;48.768;8.850;2023-11-19T09:16:27;96861.56;;;11.93;100.00
24306;BME280;12423;48.768;8.850;2023-11-19T09:18:55;96874.47;;;11.97;100.00
24306;BME280;12423;48.768;8.850;2023-11-19T09:21:24;96887.88;;;11.97;100.00
24306;BME280;12423;48.768;8.850;2023-11-19T09:23:53;96875.59;;;12.05;100.00
24306;BME280;12423;48.768;8.850;2023-11-19T09:26:21;96891.38;;;12.08;100.00
24306;BME280;12423;48.768;8.850;2023-11-19T09:28:48;96892.78;;;12.12;100.00
24306;BME280;12423;48.768;8.850;2023-11-19T09:31:17;96874.72;;;12.14;100.00
24306;BME280;12423;48.768;8.850;2023-11-19T09:33:45;96872.59;;;12.17;100.00
24306;BME280;12423;48.768;8.850;2023-11-19T09:36:13;96888.66;;;12.17;100.00
24306;BME280;12423;48.768;8.850;2023-11-19T09:38:41;96877.78;;;12.19;100.00
24306;BME280;12423;48.768;8.850;2023-11-19T09:41:10;96873.72;;;12.25;100.00
24306;BME280;12423;48.768;8.850;2023-11-19T09:43:40;96863.53;;;12.28;100.00
24306;BME280;12423;48.768;8.850;2023-11-19T09:46:10;96863.69;;;12.27;100.00
24306;BME280;12423;48.768;8.850;2023-11-19T09:48:38;96871.56;;;12.28;100.00
24306;BME280;12423;48.768;8.850;2023-11-19T09:51:07;96871.56;;;12.28;100.00
24306;BME280;12423;48.768;8.850;2023-11-19T09:53:35;96865.06;;;12.41;100.00
24306;BME280;12423;48.768;8.850;2023-11-19T09:56:04;96863.72;;;12.54;100.00
24306;BME280;12423;48.768;8.850;2023-11-19T09:58:33;96852.25;;;12.62;100.00
24306;BME280;12423;48.768;8.850;2023-11-19T10:01:01;96838.09;;;12.70;100.00
24306;BME280;12423;48.768;8.850;2023-11-19T10:03:36;96821.25;;;12.78;100.00
24306;BME280;12423;48.768;8.850;2023-11-19T10:06:06;96829.31;;;12.78;100.00
24306;BME280;12423;48.768;8.850;2023-11-19T10:08:37;96826.63;;;12.78;100.00
24306;BME280;12423;48.768;8.850;2023-11-19T10:11:05;96825.47;;;12.98;100.00
24306;BME280;12423;48.768;8.850;2023-11-19T10:13:35;96817.50;;;13.06;100.00
24306;BME280;12423;48.768;8.850;2023-11-19T10:16:08;96818.16;;;13.00;100.00
24306;BME280;12423;48.768;8.850;2023-11-19T10:18:35;96820.91;;;13.08;100.00
24306;BME280;12423;48.768;8.850;2023-11-19T10:21:06;96816.59;;;13.16;100.00
24306;BME280;12423;48.768;8.850;2023-11-19T10:23:48;96803.88;;;13.18;100.00
24306;BME280;12423;48.768;8.850;2023-11-19T10:26:16;96805.66;;;13.09;100.00
24306;BME280;12423;48.768;8.850;2023-11-19T10:28:47;96802.50;;;13.14;100.00
24306;BME280;12423;48.768;8.850;2023-11-19T10:31:15;96820.19;;;13.24;100.00
24306;BME280;12423;48.768;8.850;2023-11-19T10:33:44;96810.94;;;13.19;100.00
24306;BME280;12423;48.768;8.850;2023-11-19T10:36:13;96825.88;;;13.21;100.00
24306;BME280;12423;48.768;8.850;2023-11-19T10:38:51;96808.47;;;13.25;100.00
24306;BME280;12423;48.768;8.850;2023-11-19T10:41:29;96804.97;;;13.25;100.00
24306;BME280;12423;48.768;8.850;2023-11-19T10:43:59;96820.72;;;13.28;100.00
24306;BME280;12423;48.768;8.850;2023-11-19T10:46:37;96811.41;;;13.32;100.00
24306;BME280;12423;48.768;8.850;2023-11-19T10:49:05;96793.91;;;13.28;100.00
24306;BME280;12423;48.768;8.850;2023-11-19T10:51:33;96784.81;;;13.39;100.00
24306;BME280;12423;48.768;8.850;2023-11-19T10:54:03;96781.72;;;13.52;100.00
24306;BME280;12423;48.768;8.850;2023-11-19T10:56:32;96791.44;;;13.53;100.00
24306;BME280;12423;48.768;8.850;2023-11-19T10:59:02;96783.34;;;13.44;100.00
24306;BME280;12423;48.768;8.850;2023-11-19T11:01:48;96783.13;;;13.38;100.00
24306;BME280;12423;48.768;8.850;2023-11-19T11:04:22;96788.69;;;13.44;100.00
24306;BME280;12423;48.768;8.850;2023-11-19T11:06:51;96789.19;;;13.40;100.00
24306;BME280;12423;48.768;8.850;2023-11-19T11:09:19;96795.19;;;13.60;100.00
24306;BME280;12423;48.768;8.850;2023-11-19T11:11:50;96795.81;;;13.54;100.00
24306;BME280;12423;48.768;8.850;2023-11-19T11:14:21;96797.03;;;13.59;100.00
24306;BME280;12423;48.768;8.850;2023-11-19T11:16:49;96800.19;;;13.55;100.00
24306;BME280;12423;48.768;8.850;2023-11-19T11:19:17;96795.78;;;13.72;100.00
24306;BME280;12423;48.768;8.850;2023-11-19T11:21:49;96796.00;;;13.78;100.00
24306;BME280;12423;48.768;8.850;2023-11-19T11:24:38;96792.41;;;13.96;100.00
24306;BME280;12423;48.768;8.850;2023-11-19T11:30:38;96791.38;;;14.66;100.00
24306;BME280;12423;48.768;8.850;2023-11-19T11:33:26;96791.47;;;15.23;100.00
24306;BME280;12423;48.768;8.850;2023-11-19T11:36:09;96780.97;;;16.11;100.00
24306;BME280;12423;48.768;8.850;2023-11-19T11:38:40;96788.31;;;16.65;96.39
24306;BME280;12423;48.768;8.850;2023-11-19T11:41:21;96780.56;;;17.01;94.43
24306;BME280;12423;48.768;8.850;2023-11-19T11:43:53;96770.69;;;16.85;90.84
24306;BME280;12423;48.768;8.850;2023-11-19T11:46:55;96776.22;;;17.15;88.01
24306;BME280;12423;48.768;8.850;2023-11-19T11:49:27;96780.22;;;17.65;87.20
24306;BME280;12423;48.768;8.850;2023-11-19T11:52:03;96769.28;;;18.27;81.64
24306;BME280;12423;48.768;8.850;2023-11-19T11:54:31;96769.69;;;18.90;79.34
24306;BME280;12423;48.768;8.850;2023-11-19T11:57:12;96777.19;;;18.58;79.56
24306;BME280;12423;48.768;8.850;2023-11-19T11:59:48;96782.13;;;18.54;76.19
24306;BME280;12423;48.768;8.850;2023-11-19T12:02:19;96793.06;;;17.78;75.62
24306;BME280;12423;48.768;8.850;2023-11-19T12:04:48;96793.63;;;18.27;76.48
24306;BME280;12423;48.768;8.850;2023-11-19T12:07:21;96780.94;;;18.12;76.28
24306;BME280;12423;48.768;8.850;2023-11-19T12:09:52;96783.16;;;18.53;75.81
24306;BME280;12423;48.768;8.850;2023-11-19T12:12:23;96774.91;;;18.76;71.52
24306;BME280;12423;48.768;8.850;2023-11-19T12:15:06;96772.47;;;19.40;70.44
24306;BME280;12423;48.768;8.850;2023-11-19T12:17:41;96762.59;;;18.74;69.39
24306;BME280;12423;48.768;8.850;2023-11-19T12:20:11;96727.38;;;19.54;66.89
24306;BME280;12423;48.768;8.850;2023-11-19T12:22:40;96746.00;;;18.62;66.52
24306;BME280;12423;48.768;8.850;2023-11-19T12:25:10;96750.28;;;19.51;66.95
24306;BME280;12423;48.768;8.850;2023-11-19T12:27:39;96750.13;;;20.57;65.28
24306;BME280;12423;48.768;8.850;2023-11-19T12:30:08;96736.50;;;20.51;62.62
24306;BME280;12423;48.768;8.850;2023-11-19T12:32:41;96740.00;;;19.96;64.60
24306;BME280;12423;48.768;8.850;2023-11-19T12:35:09;96741.19;;;19.87;62.89
24306;BME280;12423;48.768;8.850;2023-11-19T12:37:40;96748.78;;;19.48;63.07
24306;BME280;12423;48.768;8.850;2023-11-19T12:40:14;96747.59;;;18.71;66.53
24306;BME280;12423;48.768;8.850;2023-11-19T12:42:43;96743.00;;;19.08;66.69
24306;BME280;12423;48.768;8.850;2023-11-19T12:45:11;96724.03;;;20.56;61.98
24306;BME280;12423;48.768;8.850;2023-11-19T12:47:41;96720.19;;;20.86;64.17
24306;BME280;12423;48.768;8.850;2023-11-19T12:50:10;96715.25;;;20.48;62.51
24306;BME280;12423;48.768;8.850;2023-11-19T12:52:38;96727.50;;;20.92;60.74
24306;BME280;12423;48.768;8.850;2023-11-19T12:55:24;96719.19;;;20.03;61.21
24306;BME280;12423;48.768;8.850;2023-11-19T12:57:56;96721.00;;;19.68;61.90
24306;BME280;12423;48.768;8.850;2023-11-19T13:00:26;96715.19;;;19.99;60.86
24306;BME280;12423;48.768;8.850;2023-11-19T13:02:56;96732.84;;;20.23;60.17
24306;BME280;12423;48.768;8.850;2023-11-19T13:05:27;96732.78;;;20.10;58.11
24306;BME280;12423;48.768;8.850;2023-11-19T13:07:59;96712.44;;;19.64;60.59
24306;BME280;12423;48.768;8.850;2023-11-19T13:10:27;96718.03;;;19.84;60.24